Fort Lee, NJ (07024)

5:09 PM EST on February 09, 2016 (GMT -0500)
Palisades Park | | Change Station
CLOSE
Current Station
Personal Weather Station
Location: Palisades Park, NJ
Elevation: 115 ft
Nearby Weather Stations
Active Advisory: Winter Weather Advisory

Elev 115 ft 40.84 °N, 74.00 °W | Updated 11 minutes ago

Overcast
Overcast
34.5 °F
Feels Like 34 °F
N
1.1
Wind Variable Wind from NNW

Today
High -- | Low -- °F
--% Chance of Precip.
Yesterday
High -- | Low -- °F
Precip. -- in
Pressure 29.57 in
Visibility 10.0 miles
Clouds Few 8000 ft
Windchill 34 °F
Dew Point 26 °F
Humidity 72%
Rainfall 0.00 in
Snow Depth Not available.
6:58 AM 5:22 PM
New Moon, 2% visible
METAR KTEB 092151Z 00000KT 10SM FEW080 02/M06 A2957 RMK AO2 SLP014 T00171056
Pressure 29.57 in
Visibility 10.0 miles
Clouds Few 8000 ft
Windchill 34 °F
Dew Point 26 °F
Humidity 72%
Rainfall 0.00 in
Snow Depth Not available.
6:58 AM 5:22 PM
New Moon, 2% visible
METAR KTEB 092151Z 00000KT 10SM FEW080 02/M06 A2957 RMK AO2 SLP014 T00171056
Winter Storm Nacio, the third winter storm in five days to affect the Northeast, is bringing pockets of locally heavy snow to parts of the Ohio Valley, Appalachians and mid-Atlantic states Tuesday. Winter storm warnings are posted for parts of southern Pennsylvania, southern Ohio and the higher peaks of the Appalachians. Winter weather advisories, generally for lighter snow accumulations, stretch from northeast Alabama and far north Georgia to southern Connecticut and Long Island.

10-Day Weather Forecast

Almanac

Astronomy

Feb. 09, 2016 Rise Set
Actual Time
Civil Twilight
Nautical Twilight
Astronomical Twilight
Moon
Length of Visible Light
Length of Day
Tomorrow will be .
, % of the Moon is Illuminated

Today's Extremes

State Highs State Lows

Community

WunderPhotos

Upload Photos

1,891,719 photos uploaded!

WunderBlog® & News

Nearby

Air Quality

  Air Quality AQ Index Pollutant
Not available.

Snow Depth

Station Depth Elevation

Earthquake Activity

City Distance Mag. Time & Date
Minimum magnitude displayed is 2.5.

Coastal Water Temperatures

Place Temperature

Stations

Nearby Weather Stations

Station Location Temp. Windchill Dew Point Humidity Wind Precip. Elev Updated Type
                   

Watches & Warnings

Winter Weather Advisory
Issued: 3:17 PM EST Feb. 9, 2016 – National Weather Service

... Winter Weather Advisory remains in effect until noon EST
Wednesday...

* locations... northeast New Jersey along and north of Interstate
80... Rockland and Westchester counties in southeast New York...
and coastal Connecticut.

* Hazard types... snow.

* Accumulations... snow accumulation of 2 to 4 inches.

* Temperatures... around 30.

* Visibilities... as low as one half mile at times.

Precautionary/preparedness actions...

A Winter Weather Advisory for snow means that periods of snow
will cause travel difficulties. Be prepared for slippery roads
and limited visibilities... and use caution while driving.



Mps